sensor_id;sensor_type;location;lat;lon;timestamp;P1;durP1;ratioP1;P2;durP2;ratioP2
44480;SDS011;30184;42.018;23.670;2024-01-30T00:01:34;7.82;;;4.03;;
44480;SDS011;30184;42.018;23.670;2024-01-30T00:04:03;5.32;;;2.95;;
44480;SDS011;30184;42.018;23.670;2024-01-30T00:06:33;14.27;;;6.70;;
44480;SDS011;30184;42.018;23.670;2024-01-30T00:09:02;10.27;;;4.22;;
44480;SDS011;30184;42.018;23.670;2024-01-30T00:11:32;20.45;;;7.47;;
44480;SDS011;30184;42.018;23.670;2024-01-30T00:14:01;4.40;;;3.15;;
44480;SDS011;30184;42.018;23.670;2024-01-30T00:16:31;7.75;;;4.32;;
44480;SDS011;30184;42.018;23.670;2024-01-30T00:19:03;6.90;;;3.83;;
44480;SDS011;30184;42.018;23.670;2024-01-30T00:21:31;5.22;;;4.70;;
44480;SDS011;30184;42.018;23.670;2024-01-30T00:24:00;16.25;;;5.25;;
44480;SDS011;30184;42.018;23.670;2024-01-30T00:26:30;9.90;;;5.13;;
44480;SDS011;30184;42.018;23.670;2024-01-30T00:28:59;4.72;;;2.85;;
44480;SDS011;30184;42.018;23.670;2024-01-30T00:31:28;7.00;;;3.35;;
44480;SDS011;30184;42.018;23.670;2024-01-30T00:33:57;2.60;;;2.03;;
44480;SDS011;30184;42.018;23.670;2024-01-30T00:36:28;14.60;;;3.72;;
44480;SDS011;30184;42.018;23.670;2024-01-30T00:38:57;13.10;;;6.60;;
44480;SDS011;30184;42.018;23.670;2024-01-30T00:41:27;7.15;;;4.25;;
44480;SDS011;30184;42.018;23.670;2024-01-30T00:43:56;4.35;;;3.67;;
44480;SDS011;30184;42.018;23.670;2024-01-30T00:46:25;4.68;;;3.42;;
44480;SDS011;30184;42.018;23.670;2024-01-30T00:48:54;4.53;;;2.38;;
44480;SDS011;30184;42.018;23.670;2024-01-30T00:51:28;8.38;;;4.10;;
44480;SDS011;30184;42.018;23.670;2024-01-30T00:53:57;10.13;;;3.97;;
44480;SDS011;30184;42.018;23.670;2024-01-30T00:56:26;4.22;;;3.65;;
44480;SDS011;30184;42.018;23.670;2024-01-30T00:58:56;4.75;;;2.22;;
44480;SDS011;30184;42.018;23.670;2024-01-30T01:01:25;6.93;;;4.10;;
44480;SDS011;30184;42.018;23.670;2024-01-30T01:03:55;6.18;;;3.65;;
44480;SDS011;30184;42.018;23.670;2024-01-30T01:06:24;15.20;;;3.83;;
44480;SDS011;30184;42.018;23.670;2024-01-30T01:08:54;4.30;;;2.58;;
44480;SDS011;30184;42.018;23.670;2024-01-30T01:11:24;4.47;;;3.72;;
44480;SDS011;30184;42.018;23.670;2024-01-30T01:13:53;3.22;;;2.08;;
44480;SDS011;30184;42.018;23.670;2024-01-30T01:16:22;3.40;;;2.70;;
44480;SDS011;30184;42.018;23.670;2024-01-30T01:18:51;15.02;;;6.63;;
44480;SDS011;30184;42.018;23.670;2024-01-30T01:21:20;11.32;;;3.35;;
44480;SDS011;30184;42.018;23.670;2024-01-30T01:23:50;34.05;;;12.07;;
44480;SDS011;30184;42.018;23.670;2024-01-30T01:26:21;5.40;;;4.28;;
44480;SDS011;30184;42.018;23.670;2024-01-30T01:28:50;2.92;;;2.45;;
44480;SDS011;30184;42.018;23.670;2024-01-30T01:31:19;2.05;;;1.77;;
44480;SDS011;30184;42.018;23.670;2024-01-30T01:33:52;4.45;;;2.75;;
44480;SDS011;30184;42.018;23.670;2024-01-30T01:36:21;3.10;;;1.38;;
44480;SDS011;30184;42.018;23.670;2024-01-30T01:38:51;6.28;;;2.25;;
44480;SDS011;30184;42.018;23.670;2024-01-30T01:41:21;2.28;;;1.80;;
44480;SDS011;30184;42.018;23.670;2024-01-30T01:43:51;2.70;;;2.15;;
44480;SDS011;30184;42.018;23.670;2024-01-30T01:46:20;2.47;;;2.17;;
44480;SDS011;30184;42.018;23.670;2024-01-30T01:48:49;3.08;;;2.50;;
44480;SDS011;30184;42.018;23.670;2024-01-30T01:51:19;2.83;;;2.38;;
44480;SDS011;30184;42.018;23.670;2024-01-30T01:53:49;3.65;;;1.98;;
44480;SDS011;30184;42.018;23.670;2024-01-30T01:56:18;2.15;;;1.65;;
44480;SDS011;30184;42.018;23.670;2024-01-30T01:58:49;3.42;;;1.80;;
44480;SDS011;30184;42.018;23.670;2024-01-30T02:01:20;4.70;;;3.03;;
44480;SDS011;30184;42.018;23.670;2024-01-30T02:03:50;3.47;;;3.10;;
44480;SDS011;30184;42.018;23.670;2024-01-30T02:06:19;5.68;;;2.92;;
44480;SDS011;30184;42.018;23.670;2024-01-30T02:08:49;3.92;;;2.42;;
44480;SDS011;30184;42.018;23.670;2024-01-30T02:11:18;10.35;;;3.47;;
44480;SDS011;30184;42.018;23.670;2024-01-30T02:13:50;6.93;;;2.80;;
44480;SDS011;30184;42.018;23.670;2024-01-30T02:16:19;10.38;;;5.13;;
44480;SDS011;30184;42.018;23.670;2024-01-30T02:18:48;8.93;;;5.05;;
44480;SDS011;30184;42.018;23.670;2024-01-30T02:21:19;4.65;;;3.17;;
44480;SDS011;30184;42.018;23.670;2024-01-30T02:23:48;3.85;;;2.20;;
44480;SDS011;30184;42.018;23.670;2024-01-30T02:26:19;1.92;;;1.75;;
44480;SDS011;30184;42.018;23.670;2024-01-30T02:28:48;7.55;;;2.78;;
44480;SDS011;30184;42.018;23.670;2024-01-30T02:31:18;2.45;;;1.90;;
44480;SDS011;30184;42.018;23.670;2024-01-30T02:33:47;4.97;;;2.63;;
44480;SDS011;30184;42.018;23.670;2024-01-30T02:36:16;4.20;;;2.67;;
44480;SDS011;30184;42.018;23.670;2024-01-30T02:38:47;4.80;;;3.08;;
44480;SDS011;30184;42.018;23.670;2024-01-30T02:41:16;4.78;;;3.05;;
44480;SDS011;30184;42.018;23.670;2024-01-30T02:43:45;1.80;;;1.65;;
44480;SDS011;30184;42.018;23.670;2024-01-30T02:46:14;2.17;;;1.90;;
44480;SDS011;30184;42.018;23.670;2024-01-30T02:48:44;2.88;;;2.42;;
44480;SDS011;30184;42.018;23.670;2024-01-30T02:51:13;4.50;;;2.35;;
44480;SDS011;30184;42.018;23.670;2024-01-30T02:53:42;12.23;;;3.17;;
44480;SDS011;30184;42.018;23.670;2024-01-30T02:56:13;8.30;;;5.40;;
44480;SDS011;30184;42.018;23.670;2024-01-30T02:58:43;6.95;;;4.65;;
44480;SDS011;30184;42.018;23.670;2024-01-30T03:01:12;12.95;;;3.08;;
44480;SDS011;30184;42.018;23.670;2024-01-30T03:03:42;5.63;;;3.40;;
44480;SDS011;30184;42.018;23.670;2024-01-30T03:06:11;4.43;;;2.53;;
44480;SDS011;30184;42.018;23.670;2024-01-30T03:08:42;1.70;;;1.60;;
44480;SDS011;30184;42.018;23.670;2024-01-30T03:11:13;1.67;;;1.50;;
44480;SDS011;30184;42.018;23.670;2024-01-30T03:13:43;1.92;;;1.75;;
44480;SDS011;30184;42.018;23.670;2024-01-30T03:16:12;2.00;;;1.50;;
44480;SDS011;30184;42.018;23.670;2024-01-30T03:18:41;3.13;;;2.00;;
44480;SDS011;30184;42.018;23.670;2024-01-30T03:21:11;1.58;;;1.48;;
44480;SDS011;30184;42.018;23.670;2024-01-30T03:23:41;3.45;;;2.80;;
44480;SDS011;30184;42.018;23.670;2024-01-30T03:26:10;4.78;;;3.90;;
44480;SDS011;30184;42.018;23.670;2024-01-30T03:28:41;20.20;;;4.53;;
44480;SDS011;30184;42.018;23.670;2024-01-30T03:31:12;3.47;;;2.22;;
44480;SDS011;30184;42.018;23.670;2024-01-30T03:33:43;14.18;;;4.25;;
44480;SDS011;30184;42.018;23.670;2024-01-30T03:36:12;6.00;;;4.00;;
44480;SDS011;30184;42.018;23.670;2024-01-30T03:38:41;13.32;;;6.57;;
44480;SDS011;30184;42.018;23.670;2024-01-30T03:41:11;6.03;;;3.67;;
44480;SDS011;30184;42.018;23.670;2024-01-30T03:43:41;2.88;;;1.98;;
44480;SDS011;30184;42.018;23.670;2024-01-30T03:46:11;4.78;;;4.28;;
44480;SDS011;30184;42.018;23.670;2024-01-30T03:48:41;6.15;;;2.90;;
44480;SDS011;30184;42.018;23.670;2024-01-30T03:51:10;6.10;;;2.40;;
44480;SDS011;30184;42.018;23.670;2024-01-30T03:53:43;3.35;;;2.58;;
44480;SDS011;30184;42.018;23.670;2024-01-30T03:56:13;3.08;;;2.25;;
44480;SDS011;30184;42.018;23.670;2024-01-30T03:58:44;2.05;;;1.85;;
44480;SDS011;30184;42.018;23.670;2024-01-30T04:01:13;7.60;;;3.08;;
44480;SDS011;30184;42.018;23.670;2024-01-30T04:03:43;7.10;;;2.65;;
44480;SDS011;30184;42.018;23.670;2024-01-30T04:06:12;5.00;;;2.83;;
44480;SDS011;30184;42.018;23.670;2024-01-30T04:08:41;3.67;;;3.05;;
44480;SDS011;30184;42.018;23.670;2024-01-30T04:11:11;5.07;;;2.60;;
44480;SDS011;30184;42.018;23.670;2024-01-30T04:13:40;3.67;;;3.38;;
44480;SDS011;30184;42.018;23.670;2024-01-30T04:16:20;6.78;;;3.88;;
44480;SDS011;30184;42.018;23.670;2024-01-30T04:18:50;5.97;;;3.15;;
44480;SDS011;30184;42.018;23.670;2024-01-30T04:21:20;5.97;;;3.30;;
44480;SDS011;30184;42.018;23.670;2024-01-30T04:23:50;2.63;;;2.42;;
44480;SDS011;30184;42.018;23.670;2024-01-30T04:26:20;1.83;;;1.73;;
44480;SDS011;30184;42.018;23.670;2024-01-30T04:28:49;4.07;;;3.53;;
44480;SDS011;30184;42.018;23.670;2024-01-30T04:31:20;8.48;;;5.80;;
44480;SDS011;30184;42.018;23.670;2024-01-30T04:33:49;10.20;;;6.65;;
44480;SDS011;30184;42.018;23.670;2024-01-30T04:36:18;9.30;;;5.78;;
44480;SDS011;30184;42.018;23.670;2024-01-30T04:38:48;4.88;;;4.47;;
44480;SDS011;30184;42.018;23.670;2024-01-30T04:41:17;3.97;;;3.45;;
44480;SDS011;30184;42.018;23.670;2024-01-30T04:43:46;3.33;;;3.03;;
44480;SDS011;30184;42.018;23.670;2024-01-30T04:46:16;14.68;;;4.85;;
44480;SDS011;30184;42.018;23.670;2024-01-30T04:51:33;4.78;;;4.30;;
44480;SDS011;30184;42.018;23.670;2024-01-30T04:54:03;8.27;;;5.30;;
44480;SDS011;30184;42.018;23.670;2024-01-30T04:56:32;6.80;;;3.78;;
44480;SDS011;30184;42.018;23.670;2024-01-30T04:59:02;6.25;;;3.10;;
44480;SDS011;30184;42.018;23.670;2024-01-30T05:01:34;9.90;;;4.88;;
44480;SDS011;30184;42.018;23.670;2024-01-30T05:04:06;15.20;;;5.80;;
44480;SDS011;30184;42.018;23.670;2024-01-30T05:06:36;12.35;;;5.10;;
44480;SDS011;30184;42.018;23.670;2024-01-30T05:09:06;9.38;;;6.60;;
44480;SDS011;30184;42.018;23.670;2024-01-30T05:11:36;29.58;;;11.13;;
44480;SDS011;30184;42.018;23.670;2024-01-30T05:14:06;16.73;;;7.88;;
44480;SDS011;30184;42.018;23.670;2024-01-30T05:16:37;11.57;;;9.00;;
44480;SDS011;30184;42.018;23.670;2024-01-30T05:19:07;17.38;;;10.18;;
44480;SDS011;30184;42.018;23.670;2024-01-30T05:21:40;12.95;;;7.47;;
44480;SDS011;30184;42.018;23.670;2024-01-30T05:24:10;12.88;;;9.15;;
44480;SDS011;30184;42.018;23.670;2024-01-30T05:26:39;15.57;;;10.00;;
44480;SDS011;30184;42.018;23.670;2024-01-30T05:29:08;8.48;;;4.97;;
44480;SDS011;30184;42.018;23.670;2024-01-30T05:31:38;6.57;;;4.13;;
44480;SDS011;30184;42.018;23.670;2024-01-30T05:34:09;10.63;;;3.90;;
44480;SDS011;30184;42.018;23.670;2024-01-30T05:36:38;3.20;;;2.90;;
44480;SDS011;30184;42.018;23.670;2024-01-30T05:39:07;13.38;;;5.20;;
44480;SDS011;30184;42.018;23.670;2024-01-30T05:41:37;15.68;;;8.27;;
44480;SDS011;30184;42.018;23.670;2024-01-30T05:44:07;9.95;;;6.13;;
44480;SDS011;30184;42.018;23.670;2024-01-30T05:46:36;3.67;;;3.38;;
44480;SDS011;30184;42.018;23.670;2024-01-30T05:49:06;28.13;;;8.65;;
44480;SDS011;30184;42.018;23.670;2024-01-30T05:51:37;12.45;;;7.82;;
44480;SDS011;30184;42.018;23.670;2024-01-30T05:54:06;16.50;;;8.63;;
44480;SDS011;30184;42.018;23.670;2024-01-30T05:56:36;16.02;;;11.32;;
44480;SDS011;30184;42.018;23.670;2024-01-30T05:59:05;5.82;;;5.03;;
44480;SDS011;30184;42.018;23.670;2024-01-30T06:01:35;8.38;;;5.95;;
44480;SDS011;30184;42.018;23.670;2024-01-30T06:04:05;21.73;;;5.10;;
44480;SDS011;30184;42.018;23.670;2024-01-30T06:06:34;8.88;;;6.78;;
44480;SDS011;30184;42.018;23.670;2024-01-30T06:09:05;7.70;;;5.70;;
44480;SDS011;30184;42.018;23.670;2024-01-30T06:11:36;6.22;;;5.18;;
44480;SDS011;30184;42.018;23.670;2024-01-30T06:14:06;9.05;;;6.03;;
44480;SDS011;30184;42.018;23.670;2024-01-30T06:16:35;31.65;;;10.23;;
44480;SDS011;30184;42.018;23.670;2024-01-30T06:19:04;5.80;;;5.30;;
44480;SDS011;30184;42.018;23.670;2024-01-30T06:21:34;7.90;;;6.30;;
44480;SDS011;30184;42.018;23.670;2024-01-30T06:24:07;15.32;;;9.38;;
44480;SDS011;30184;42.018;23.670;2024-01-30T06:26:36;11.82;;;5.68;;
44480;SDS011;30184;42.018;23.670;2024-01-30T06:29:05;24.38;;;9.95;;
44480;SDS011;30184;42.018;23.670;2024-01-30T06:31:39;12.93;;;8.15;;
44480;SDS011;30184;42.018;23.670;2024-01-30T06:34:08;12.25;;;8.85;;
44480;SDS011;30184;42.018;23.670;2024-01-30T06:36:39;15.52;;;7.45;;
44480;SDS011;30184;42.018;23.670;2024-01-30T06:39:10;4.32;;;3.60;;
44480;SDS011;30184;42.018;23.670;2024-01-30T06:41:39;5.10;;;4.63;;
44480;SDS011;30184;42.018;23.670;2024-01-30T06:44:08;19.27;;;10.13;;
44480;SDS011;30184;42.018;23.670;2024-01-30T06:46:37;32.45;;;16.40;;
44480;SDS011;30184;42.018;23.670;2024-01-30T06:49:07;31.75;;;15.48;;
44480;SDS011;30184;42.018;23.670;2024-01-30T06:51:36;29.58;;;16.00;;
44480;SDS011;30184;42.018;23.670;2024-01-30T06:54:05;24.63;;;15.60;;
44480;SDS011;30184;42.018;23.670;2024-01-30T06:56:36;25.15;;;17.45;;
44480;SDS011;30184;42.018;23.670;2024-01-30T06:59:05;19.35;;;10.85;;
44480;SDS011;30184;42.018;23.670;2024-01-30T07:01:36;19.42;;;9.57;;
44480;SDS011;30184;42.018;23.670;2024-01-30T07:04:05;31.40;;;19.33;;
44480;SDS011;30184;42.018;23.670;2024-01-30T07:06:34;73.85;;;33.78;;
44480;SDS011;30184;42.018;23.670;2024-01-30T07:09:04;100.03;;;38.55;;
44480;SDS011;30184;42.018;23.670;2024-01-30T07:11:33;74.97;;;34.35;;
44480;SDS011;30184;42.018;23.670;2024-01-30T07:14:04;68.30;;;26.75;;
44480;SDS011;30184;42.018;23.670;2024-01-30T07:16:33;50.58;;;23.63;;
44480;SDS011;30184;42.018;23.670;2024-01-30T07:19:02;55.58;;;24.95;;
44480;SDS011;30184;42.018;23.670;2024-01-30T07:21:32;29.13;;;16.33;;
44480;SDS011;30184;42.018;23.670;2024-01-30T07:24:01;38.80;;;20.88;;
44480;SDS011;30184;42.018;23.670;2024-01-30T07:26:30;17.80;;;10.43;;
44480;SDS011;30184;42.018;23.670;2024-01-30T07:29:00;12.82;;;7.63;;
44480;SDS011;30184;42.018;23.670;2024-01-30T07:31:31;18.77;;;10.82;;
44480;SDS011;30184;42.018;23.670;2024-01-30T07:34:00;54.63;;;20.63;;
44480;SDS011;30184;42.018;23.670;2024-01-30T07:36:30;26.27;;;15.85;;
44480;SDS011;30184;42.018;23.670;2024-01-30T07:38:59;50.75;;;25.73;;
44480;SDS011;30184;42.018;23.670;2024-01-30T07:41:28;61.38;;;27.30;;
44480;SDS011;30184;42.018;23.670;2024-01-30T07:43:58;32.33;;;18.83;;
44480;SDS011;30184;42.018;23.670;2024-01-30T07:46:27;55.85;;;25.67;;
44480;SDS011;30184;42.018;23.670;2024-01-30T07:48:59;66.40;;;26.10;;
44480;SDS011;30184;42.018;23.670;2024-01-30T07:51:29;37.60;;;17.73;;
44480;SDS011;30184;42.018;23.670;2024-01-30T07:54:00;41.50;;;16.90;;
44480;SDS011;30184;42.018;23.670;2024-01-30T07:56:30;24.25;;;11.82;;
44480;SDS011;30184;42.018;23.670;2024-01-30T07:58:59;40.53;;;14.73;;
44480;SDS011;30184;42.018;23.670;2024-01-30T08:01:29;42.33;;;15.48;;
44480;SDS011;30184;42.018;23.670;2024-01-30T08:04:00;28.13;;;13.75;;
44480;SDS011;30184;42.018;23.670;2024-01-30T08:06:30;38.92;;;15.82;;
44480;SDS011;30184;42.018;23.670;2024-01-30T08:08:59;51.88;;;20.75;;
44480;SDS011;30184;42.018;23.670;2024-01-30T08:11:28;33.53;;;12.88;;
44480;SDS011;30184;42.018;23.670;2024-01-30T08:13:59;20.30;;;11.38;;
44480;SDS011;30184;42.018;23.670;2024-01-30T08:16:28;63.28;;;22.52;;
44480;SDS011;30184;42.018;23.670;2024-01-30T08:18:57;71.90;;;14.98;;
44480;SDS011;30184;42.018;23.670;2024-01-30T08:21:28;27.27;;;14.82;;
44480;SDS011;30184;42.018;23.670;2024-01-30T08:23:57;27.45;;;12.80;;
44480;SDS011;30184;42.018;23.670;2024-01-30T08:26:27;24.35;;;10.05;;
44480;SDS011;30184;42.018;23.670;2024-01-30T08:28:56;27.02;;;12.25;;
44480;SDS011;30184;42.018;23.670;2024-01-30T08:31:26;26.35;;;13.00;;
44480;SDS011;30184;42.018;23.670;2024-01-30T08:33:55;13.90;;;6.68;;
44480;SDS011;30184;42.018;23.670;2024-01-30T08:36:25;17.85;;;7.95;;
44480;SDS011;30184;42.018;23.670;2024-01-30T08:38:55;40.25;;;14.50;;
44480;SDS011;30184;42.018;23.670;2024-01-30T08:41:26;42.38;;;18.20;;
44480;SDS011;30184;42.018;23.670;2024-01-30T08:43:56;40.92;;;12.07;;
44480;SDS011;30184;42.018;23.670;2024-01-30T08:46:25;15.55;;;8.70;;
44480;SDS011;30184;42.018;23.670;2024-01-30T08:48:55;21.48;;;10.85;;
44480;SDS011;30184;42.018;23.670;2024-01-30T08:51:24;9.73;;;5.40;;
44480;SDS011;30184;42.018;23.670;2024-01-30T08:53:53;13.80;;;5.35;;
44480;SDS011;30184;42.018;23.670;2024-01-30T08:56:24;8.80;;;4.70;;
44480;SDS011;30184;42.018;23.670;2024-01-30T08:58:54;6.88;;;3.20;;
44480;SDS011;30184;42.018;23.670;2024-01-30T09:01:23;6.53;;;4.35;;
44480;SDS011;30184;42.018;23.670;2024-01-30T09:03:56;10.00;;;5.38;;
44480;SDS011;30184;42.018;23.670;2024-01-30T09:06:26;6.68;;;4.05;;
44480;SDS011;30184;42.018;23.670;2024-01-30T09:08:57;4.35;;;2.63;;
44480;SDS011;30184;42.018;23.670;2024-01-30T09:11:28;7.25;;;2.90;;
44480;SDS011;30184;42.018;23.670;2024-01-30T09:13:58;3.58;;;2.13;;
44480;SDS011;30184;42.018;23.670;2024-01-30T09:16:36;6.93;;;3.90;;
44480;SDS011;30184;42.018;23.670;2024-01-30T09:19:05;8.27;;;3.53;;
44480;SDS011;30184;42.018;23.670;2024-01-30T09:21:38;3.90;;;1.90;;
44480;SDS011;30184;42.018;23.670;2024-01-30T09:24:10;11.65;;;3.25;;
44480;SDS011;30184;42.018;23.670;2024-01-30T09:26:42;8.57;;;4.10;;
44480;SDS011;30184;42.018;23.670;2024-01-30T09:29:12;3.97;;;2.83;;
44480;SDS011;30184;42.018;23.670;2024-01-30T09:31:42;7.63;;;4.75;;
44480;SDS011;30184;42.018;23.670;2024-01-30T09:34:12;4.60;;;2.67;;
44480;SDS011;30184;42.018;23.670;2024-01-30T09:36:41;8.57;;;5.00;;
44480;SDS011;30184;42.018;23.670;2024-01-30T09:39:12;13.52;;;8.90;;
44480;SDS011;30184;42.018;23.670;2024-01-30T09:41:46;19.80;;;9.55;;
44480;SDS011;30184;42.018;23.670;2024-01-30T09:44:17;18.33;;;7.85;;
44480;SDS011;30184;42.018;23.670;2024-01-30T09:46:49;2.67;;;1.58;;
44480;SDS011;30184;42.018;23.670;2024-01-30T09:49:19;12.35;;;5.88;;
44480;SDS011;30184;42.018;23.670;2024-01-30T09:51:52;15.20;;;5.70;;
44480;SDS011;30184;42.018;23.670;2024-01-30T09:54:24;7.82;;;4.90;;
44480;SDS011;30184;42.018;23.670;2024-01-30T09:56:54;10.43;;;3.92;;
44480;SDS011;30184;42.018;23.670;2024-01-30T09:59:23;16.38;;;7.63;;
44480;SDS011;30184;42.018;23.670;2024-01-30T10:01:55;21.58;;;6.80;;
44480;SDS011;30184;42.018;23.670;2024-01-30T10:04:24;8.45;;;4.63;;
44480;SDS011;30184;42.018;23.670;2024-01-30T10:06:53;6.22;;;3.42;;
44480;SDS011;30184;42.018;23.670;2024-01-30T10:09:25;14.57;;;8.25;;
44480;SDS011;30184;42.018;23.670;2024-01-30T10:11:54;3.50;;;2.13;;
44480;SDS011;30184;42.018;23.670;2024-01-30T10:14:23;6.25;;;2.95;;
44480;SDS011;30184;42.018;23.670;2024-01-30T10:16:54;3.90;;;2.33;;
44480;SDS011;30184;42.018;23.670;2024-01-30T10:19:24;9.77;;;3.58;;
44480;SDS011;30184;42.018;23.670;2024-01-30T10:21:54;4.97;;;2.50;;
44480;SDS011;30184;42.018;23.670;2024-01-30T10:24:26;15.23;;;7.18;;
44480;SDS011;30184;42.018;23.670;2024-01-30T10:26:57;21.77;;;6.55;;
44480;SDS011;30184;42.018;23.670;2024-01-30T10:29:26;6.45;;;3.13;;
44480;SDS011;30184;42.018;23.670;2024-01-30T10:31:59;8.55;;;3.60;;
44480;SDS011;30184;42.018;23.670;2024-01-30T10:34:30;9.40;;;3.33;;
44480;SDS011;30184;42.018;23.670;2024-01-30T10:37:01;5.50;;;3.15;;
44480;SDS011;30184;42.018;23.670;2024-01-30T10:39:42;6.95;;;2.70;;
44480;SDS011;30184;42.018;23.670;2024-01-30T10:42:13;6.50;;;3.55;;
44480;SDS011;30184;42.018;23.670;2024-01-30T10:44:44;6.55;;;3.40;;
44480;SDS011;30184;42.018;23.670;2024-01-30T10:47:26;12.27;;;5.65;;
44480;SDS011;30184;42.018;23.670;2024-01-30T10:49:56;9.48;;;4.05;;
44480;SDS011;30184;42.018;23.670;2024-01-30T10:52:26;4.75;;;2.28;;
44480;SDS011;30184;42.018;23.670;2024-01-30T10:55:00;10.05;;;3.67;;
44480;SDS011;30184;42.018;23.670;2024-01-30T10:57:31;4.53;;;2.53;;
44480;SDS011;30184;42.018;23.670;2024-01-30T11:00:04;7.55;;;3.05;;
44480;SDS011;30184;42.018;23.670;2024-01-30T11:02:38;5.47;;;3.33;;
44480;SDS011;30184;42.018;23.670;2024-01-30T11:05:09;17.33;;;7.90;;
44480;SDS011;30184;42.018;23.670;2024-01-30T11:07:39;10.00;;;3.58;;
44480;SDS011;30184;42.018;23.670;2024-01-30T11:10:12;17.83;;;5.47;;
44480;SDS011;30184;42.018;23.670;2024-01-30T11:12:42;6.47;;;3.90;;
44480;SDS011;30184;42.018;23.670;2024-01-30T11:15:14;3.53;;;2.22;;
44480;SDS011;30184;42.018;23.670;2024-01-30T11:17:45;4.68;;;2.90;;
44480;SDS011;30184;42.018;23.670;2024-01-30T11:20:20;7.55;;;3.97;;
44480;SDS011;30184;42.018;23.670;2024-01-30T11:22:50;3.53;;;1.55;;
44480;SDS011;30184;42.018;23.670;2024-01-30T11:25:23;11.02;;;3.42;;
44480;SDS011;30184;42.018;23.670;2024-01-30T11:27:53;9.35;;;4.20;;
44480;SDS011;30184;42.018;23.670;2024-01-30T11:30:24;7.45;;;2.78;;
44480;SDS011;30184;42.018;23.670;2024-01-30T11:32:58;10.27;;;4.57;;
44480;SDS011;30184;42.018;23.670;2024-01-30T11:35:33;9.65;;;4.30;;
44480;SDS011;30184;42.018;23.670;2024-01-30T11:38:03;17.67;;;7.47;;
44480;SDS011;30184;42.018;23.670;2024-01-30T11:40:36;23.98;;;9.63;;
44480;SDS011;30184;42.018;23.670;2024-01-30T11:43:07;9.73;;;2.90;;
44480;SDS011;30184;42.018;23.670;2024-01-30T11:45:37;2.65;;;1.95;;
44480;SDS011;30184;42.018;23.670;2024-01-30T11:48:07;6.75;;;2.75;;
44480;SDS011;30184;42.018;23.670;2024-01-30T11:50:38;3.28;;;2.17;;
44480;SDS011;30184;42.018;23.670;2024-01-30T11:53:08;10.68;;;4.95;;
44480;SDS011;30184;42.018;23.670;2024-01-30T11:55:39;4.65;;;2.30;;
44480;SDS011;30184;42.018;23.670;2024-01-30T11:58:09;8.10;;;2.17;;
44480;SDS011;30184;42.018;23.670;2024-01-30T12:00:38;5.25;;;2.85;;
44480;SDS011;30184;42.018;23.670;2024-01-30T12:03:07;10.27;;;3.95;;
44480;SDS011;30184;42.018;23.670;2024-01-30T12:05:36;13.05;;;5.03;;
44480;SDS011;30184;42.018;23.670;2024-01-30T12:08:14;11.52;;;5.13;;
44480;SDS011;30184;42.018;23.670;2024-01-30T12:10:56;12.50;;;6.68;;
44480;SDS011;30184;42.018;23.670;2024-01-30T12:13:26;7.32;;;4.18;;
44480;SDS011;30184;42.018;23.670;2024-01-30T12:16:01;4.28;;;2.22;;
44480;SDS011;30184;42.018;23.670;2024-01-30T12:18:33;6.47;;;2.75;;
44480;SDS011;30184;42.018;23.670;2024-01-30T12:21:06;20.85;;;3.00;;
44480;SDS011;30184;42.018;23.670;2024-01-30T12:23:36;6.95;;;3.45;;
44480;SDS011;30184;42.018;23.670;2024-01-30T12:26:09;9.27;;;3.00;;
44480;SDS011;30184;42.018;23.670;2024-01-30T12:28:47;12.25;;;5.90;;
44480;SDS011;30184;42.018;23.670;2024-01-30T12:31:17;20.23;;;8.65;;
44480;SDS011;30184;42.018;23.670;2024-01-30T12:33:48;11.02;;;4.50;;
44480;SDS011;30184;42.018;23.670;2024-01-30T12:36:24;16.33;;;5.93;;
44480;SDS011;30184;42.018;23.670;2024-01-30T12:38:53;15.18;;;6.03;;
44480;SDS011;30184;42.018;23.670;2024-01-30T12:41:24;14.00;;;6.13;;
44480;SDS011;30184;42.018;23.670;2024-01-30T12:43:56;11.38;;;4.80;;
44480;SDS011;30184;42.018;23.670;2024-01-30T12:46:30;27.13;;;9.27;;
44480;SDS011;30184;42.018;23.670;2024-01-30T12:48:59;16.17;;;5.07;;
44480;SDS011;30184;42.018;23.670;2024-01-30T12:51:29;10.85;;;3.90;;
44480;SDS011;30184;42.018;23.670;2024-01-30T12:54:06;9.43;;;3.92;;
44480;SDS011;30184;42.018;23.670;2024-01-30T12:56:37;4.35;;;2.63;;
44480;SDS011;30184;42.018;23.670;2024-01-30T12:59:07;7.78;;;2.92;;
44480;SDS011;30184;42.018;23.670;2024-01-30T13:01:37;5.80;;;2.30;;
44480;SDS011;30184;42.018;23.670;2024-01-30T13:04:06;13.88;;;5.68;;
44480;SDS011;30184;42.018;23.670;2024-01-30T13:06:36;8.60;;;3.42;;
44480;SDS011;30184;42.018;23.670;2024-01-30T13:09:18;39.08;;;12.75;;
44480;SDS011;30184;42.018;23.670;2024-01-30T13:11:50;9.57;;;3.90;;
44480;SDS011;30184;42.018;23.670;2024-01-30T13:14:20;4.65;;;2.33;;
44480;SDS011;30184;42.018;23.670;2024-01-30T13:16:54;7.72;;;3.72;;
44480;SDS011;30184;42.018;23.670;2024-01-30T13:19:53;12.27;;;5.72;;
44480;SDS011;30184;42.018;23.670;2024-01-30T13:22:57;14.20;;;7.05;;
44480;SDS011;30184;42.018;23.670;2024-01-30T13:28:47;10.68;;;5.55;;
44480;SDS011;30184;42.018;23.670;2024-01-30T13:31:17;7.72;;;5.55;;
44480;SDS011;30184;42.018;23.670;2024-01-30T13:33:46;8.68;;;3.67;;
44480;SDS011;30184;42.018;23.670;2024-01-30T13:39:38;8.38;;;4.95;;
44480;SDS011;30184;42.018;23.670;2024-01-30T13:42:09;8.05;;;3.95;;
44480;SDS011;30184;42.018;23.670;2024-01-30T13:44:43;8.82;;;4.32;;
44480;SDS011;30184;42.018;23.670;2024-01-30T13:47:13;2.60;;;1.75;;
44480;SDS011;30184;42.018;23.670;2024-01-30T13:49:42;5.82;;;1.95;;
44480;SDS011;30184;42.018;23.670;2024-01-30T13:52:18;7.68;;;3.97;;
44480;SDS011;30184;42.018;23.670;2024-01-30T13:54:48;6.43;;;2.55;;
44480;SDS011;30184;42.018;23.670;2024-01-30T13:57:18;3.97;;;1.75;;
44480;SDS011;30184;42.018;23.670;2024-01-30T13:59:48;3.13;;;1.98;;
44480;SDS011;30184;42.018;23.670;2024-01-30T14:02:18;3.78;;;2.30;;
44480;SDS011;30184;42.018;23.670;2024-01-30T14:04:49;4.03;;;1.92;;
44480;SDS011;30184;42.018;23.670;2024-01-30T14:07:20;7.90;;;2.97;;
44480;SDS011;30184;42.018;23.670;2024-01-30T14:09:50;28.15;;;6.78;;
44480;SDS011;30184;42.018;23.670;2024-01-30T14:12:19;4.78;;;2.47;;
44480;SDS011;30184;42.018;23.670;2024-01-30T14:14:50;10.43;;;2.72;;
44480;SDS011;30184;42.018;23.670;2024-01-30T14:17:22;10.00;;;3.38;;
44480;SDS011;30184;42.018;23.670;2024-01-30T14:19:52;3.97;;;2.38;;
44480;SDS011;30184;42.018;23.670;2024-01-30T14:22:24;11.60;;;4.28;;
44480;SDS011;30184;42.018;23.670;2024-01-30T14:24:54;5.95;;;2.50;;
44480;SDS011;30184;42.018;23.670;2024-01-30T14:27:25;5.90;;;2.92;;
44480;SDS011;30184;42.018;23.670;2024-01-30T14:29:56;11.02;;;3.08;;
44480;SDS011;30184;42.018;23.670;2024-01-30T14:32:26;2.00;;;1.42;;
44480;SDS011;30184;42.018;23.670;2024-01-30T14:34:56;11.30;;;4.63;;
44480;SDS011;30184;42.018;23.670;2024-01-30T14:37:25;8.63;;;3.72;;
44480;SDS011;30184;42.018;23.670;2024-01-30T14:39:58;10.00;;;5.47;;
44480;SDS011;30184;42.018;23.670;2024-01-30T14:42:27;5.30;;;3.00;;
44480;SDS011;30184;42.018;23.670;2024-01-30T14:45:00;13.15;;;6.55;;
44480;SDS011;30184;42.018;23.670;2024-01-30T14:47:30;15.35;;;3.45;;
44480;SDS011;30184;42.018;23.670;2024-01-30T14:49:59;8.30;;;4.35;;
44480;SDS011;30184;42.018;23.670;2024-01-30T14:52:29;12.05;;;3.42;;
44480;SDS011;30184;42.018;23.670;2024-01-30T14:54:59;11.07;;;4.40;;